createdAt,value
2023-04-27T00:02:12.788Z,3.53
2023-04-27T00:04:40.705Z,3.47
2023-04-27T00:07:10.661Z,3.80
2023-04-27T00:09:39.727Z,3.73
2023-04-27T00:12:07.637Z,3.60
2023-04-27T00:14:36.600Z,3.77
2023-04-27T00:17:14.198Z,3.63
2023-04-27T00:19:42.964Z,3.80
2023-04-27T00:22:20.127Z,3.40
2023-04-27T00:24:51.012Z,3.60
2023-04-27T00:27:19.783Z,3.70
2023-04-27T00:29:49.209Z,4.00
2023-04-27T00:32:19.593Z,4.00
2023-04-27T00:34:50.178Z,3.50
2023-04-27T00:37:21.489Z,3.60
2023-04-27T00:39:50.383Z,3.90
2023-04-27T00:42:20.142Z,4.27
2023-04-27T00:44:51.856Z,3.60
2023-04-27T00:47:27.609Z,3.80
2023-04-27T00:50:09.768Z,3.60
2023-04-27T00:52:50.040Z,4.43
2023-04-27T00:55:21.776Z,3.47
2023-04-27T00:57:52.827Z,3.60
2023-04-27T01:00:22.932Z,3.33
2023-04-27T01:02:53.971Z,3.40
2023-04-27T01:05:22.606Z,3.70
2023-04-27T01:07:51.918Z,4.10
2023-04-27T01:10:22.353Z,4.20
2023-04-27T01:12:51.329Z,3.43
2023-04-27T01:15:20.005Z,3.90
2023-04-27T01:17:49.691Z,3.90
2023-04-27T01:20:21.212Z,4.07
2023-04-27T01:22:49.543Z,3.77
2023-04-27T01:25:19.048Z,3.40
2023-04-27T01:27:48.711Z,3.70
2023-04-27T01:30:17.072Z,3.63
2023-04-27T01:32:47.005Z,3.70
2023-04-27T01:35:17.609Z,3.40
2023-04-27T01:37:48.290Z,3.57
2023-04-27T01:40:18.853Z,3.80
2023-04-27T01:42:47.447Z,3.70
2023-04-27T01:45:20.130Z,3.37
2023-04-27T01:47:54.642Z,3.63
2023-04-27T01:50:24.395Z,3.60
2023-04-27T01:52:53.666Z,3.50
2023-04-27T01:55:22.897Z,3.63
2023-04-27T01:57:51.148Z,3.77
2023-04-27T02:00:27.646Z,3.70
2023-04-27T02:03:01.678Z,3.50
2023-04-27T02:05:33.587Z,3.97
2023-04-27T02:08:05.598Z,3.80
2023-04-27T02:10:36.707Z,3.80
2023-04-27T02:13:06.810Z,3.67
2023-04-27T02:15:37.523Z,3.80
2023-04-27T02:18:06.200Z,3.70
2023-04-27T02:20:42.870Z,3.80
2023-04-27T02:23:13.197Z,3.23
2023-04-27T02:25:50.089Z,3.63
2023-04-27T02:28:20.329Z,3.77
2023-04-27T02:30:57.211Z,3.90
2023-04-27T02:33:25.997Z,3.90
2023-04-27T02:35:56.021Z,4.10
2023-04-27T02:38:27.741Z,4.23
2023-04-27T02:41:10.700Z,4.00
2023-04-27T02:43:39.900Z,3.93
2023-04-27T02:46:07.080Z,3.70
2023-04-27T02:48:39.808Z,3.80
2023-04-27T02:51:14.830Z,3.97
2023-04-27T02:53:45.628Z,4.23
2023-04-27T02:56:17.715Z,3.90
2023-04-27T02:58:49.499Z,4.20
2023-04-27T03:01:20.441Z,3.67
2023-04-27T03:03:52.945Z,4.03
2023-04-27T03:06:23.406Z,4.37
2023-04-27T03:08:52.956Z,4.50
2023-04-27T03:11:21.519Z,3.87
2023-04-27T03:13:59.992Z,4.10
2023-04-27T03:16:29.909Z,4.53
2023-04-27T03:19:06.071Z,4.17
2023-04-27T03:21:35.604Z,4.00
2023-04-27T03:24:10.166Z,4.23
2023-04-27T03:26:47.231Z,3.93
2023-04-27T03:29:16.399Z,4.30
2023-04-27T03:31:47.556Z,4.37
2023-04-27T03:34:16.015Z,4.07
2023-04-27T03:36:50.784Z,4.13
2023-04-27T03:39:20.447Z,3.97
2023-04-27T03:41:51.408Z,4.77
2023-04-27T03:44:20.265Z,4.40
2023-04-27T03:47:02.076Z,4.33
2023-04-27T03:49:39.707Z,4.20
2023-04-27T03:52:08.087Z,4.13
2023-04-27T03:54:38.082Z,3.67
2023-04-27T03:57:09.224Z,3.93
2023-04-27T03:59:37.568Z,3.70
2023-04-27T04:02:10.032Z,3.67
2023-04-27T04:04:37.660Z,4.60
2023-04-27T04:07:10.550Z,4.33
2023-04-27T04:09:40.112Z,4.50
2023-04-27T04:12:08.925Z,4.40
2023-04-27T04:14:37.598Z,4.07
2023-04-27T04:17:07.983Z,4.60
2023-04-27T04:19:35.922Z,5.13
2023-04-27T04:22:14.497Z,4.47
2023-04-27T04:24:44.092Z,4.47
2023-04-27T04:27:16.225Z,4.60
2023-04-27T04:29:43.528Z,4.30
2023-04-27T04:32:19.574Z,4.30
2023-04-27T04:34:59.063Z,5.00
2023-04-27T04:37:27.683Z,4.57
2023-04-27T04:39:56.727Z,4.47
2023-04-27T04:42:33.709Z,4.63
2023-04-27T04:45:07.788Z,4.40
2023-04-27T04:47:37.334Z,4.80
2023-04-27T04:50:14.484Z,4.07
2023-04-27T04:52:44.698Z,4.17
2023-04-27T04:55:15.464Z,4.23
2023-04-27T04:57:48.872Z,4.47
2023-04-27T05:00:21.936Z,4.07
2023-04-27T05:02:53.097Z,4.20
2023-04-27T05:05:24.498Z,4.10
2023-04-27T05:07:54.288Z,4.23
2023-04-27T05:10:24.202Z,4.03
2023-04-27T05:12:59.663Z,4.27
2023-04-27T05:15:30.574Z,3.87
2023-04-27T05:17:59.137Z,4.60
2023-04-27T05:20:29.532Z,4.33
2023-04-27T05:22:58.064Z,3.87
2023-04-27T05:25:29.556Z,4.50
2023-04-27T05:28:00.197Z,3.93
2023-04-27T05:30:31.374Z,4.00
2023-04-27T05:33:00.609Z,4.13
2023-04-27T05:35:29.692Z,4.10
2023-04-27T05:38:00.153Z,4.23
2023-04-27T05:40:30.471Z,4.00
2023-04-27T05:43:04.900Z,4.40
2023-04-27T05:45:34.885Z,4.47
2023-04-27T05:48:05.703Z,4.13
2023-04-27T05:50:41.997Z,4.40
2023-04-27T05:53:13.676Z,4.33
2023-04-27T05:55:47.124Z,3.80
2023-04-27T05:58:23.754Z,4.40
2023-04-27T06:00:54.732Z,4.03
2023-04-27T06:03:23.631Z,4.33
2023-04-27T06:06:05.967Z,4.53
2023-04-27T06:08:39.730Z,4.10
2023-04-27T06:11:07.371Z,3.90
2023-04-27T06:13:37.579Z,3.60
2023-04-27T06:16:14.860Z,3.63
2023-04-27T06:18:44.458Z,3.70
2023-04-27T06:21:15.309Z,3.60
2023-04-27T06:23:45.137Z,4.10
2023-04-27T06:26:13.607Z,4.03
2023-04-27T06:28:41.894Z,3.80
2023-04-27T06:31:12.206Z,3.53
2023-04-27T06:33:45.187Z,3.70
2023-04-27T06:36:22.170Z,3.30
2023-04-27T06:38:51.592Z,3.67
2023-04-27T06:41:27.344Z,3.77
2023-04-27T06:43:58.599Z,3.07
2023-04-27T06:46:28.964Z,3.57
2023-04-27T06:49:05.480Z,3.60
2023-04-27T06:51:45.024Z,3.63
2023-04-27T06:54:14.637Z,3.30
2023-04-27T06:56:45.968Z,3.37
2023-04-27T06:59:24.903Z,3.20
2023-04-27T07:01:55.795Z,3.37
2023-04-27T07:04:24.594Z,3.33
2023-04-27T07:06:56.602Z,3.47
2023-04-27T07:09:32.855Z,3.60
2023-04-27T07:12:11.552Z,3.47
2023-04-27T07:14:41.886Z,3.60
2023-04-27T07:17:17.653Z,3.40
2023-04-27T07:19:47.342Z,3.73
2023-04-27T07:22:18.599Z,3.35
2023-04-27T07:24:47.372Z,3.53
2023-04-27T07:27:23.419Z,3.30
2023-04-27T07:29:54.162Z,3.60
2023-04-27T07:32:30.369Z,3.10
2023-04-27T07:34:59.002Z,3.58
2023-04-27T07:37:29.953Z,3.22
2023-04-27T07:40:00.423Z,3.53
2023-04-27T07:42:30.253Z,3.03
2023-04-27T07:45:01.250Z,3.67
2023-04-27T07:47:29.741Z,3.65
2023-04-27T07:49:59.619Z,3.67
2023-04-27T07:52:29.282Z,3.35
2023-04-27T07:54:57.739Z,3.63
2023-04-27T07:57:27.359Z,3.60
2023-04-27T07:59:59.381Z,3.42
2023-04-27T08:02:35.320Z,3.67
2023-04-27T08:05:06.222Z,3.15
2023-04-27T08:07:41.235Z,3.88
2023-04-27T08:10:18.392Z,2.92
2023-04-27T08:12:48.632Z,2.80
2023-04-27T08:15:19.203Z,3.40
2023-04-27T08:17:51.035Z,3.28
2023-04-27T08:20:21.139Z,3.10
2023-04-27T08:22:52.756Z,3.53
2023-04-27T08:25:29.317Z,3.17
2023-04-27T08:27:58.830Z,3.22
2023-04-27T08:30:27.232Z,3.33
2023-04-27T08:33:03.985Z,3.35
2023-04-27T08:35:35.084Z,3.20
2023-04-27T08:38:03.388Z,3.10
2023-04-27T08:40:32.490Z,3.05
2023-04-27T08:43:02.292Z,3.00
2023-04-27T08:45:31.044Z,3.10
2023-04-27T08:48:02.003Z,3.45
2023-04-27T08:50:53.207Z,2.95
2023-04-27T08:53:23.647Z,3.50
2023-04-27T08:55:59.492Z,3.30
2023-04-27T08:58:48.443Z,3.40
2023-04-27T09:01:18.571Z,3.42
2023-04-27T09:03:47.816Z,2.90
2023-04-27T09:06:17.519Z,3.15
2023-04-27T09:09:00.163Z,3.60
2023-04-27T09:11:41.507Z,3.03
2023-04-27T09:14:25.169Z,3.70
2023-04-27T09:17:00.607Z,3.10
2023-04-27T09:19:44.167Z,3.28
2023-04-27T09:22:14.791Z,3.75
2023-04-27T09:24:59.515Z,3.30
2023-04-27T09:27:39.548Z,2.90
2023-04-27T09:30:19.088Z,3.35
2023-04-27T09:32:59.820Z,3.40
2023-04-27T09:35:33.305Z,3.63
2023-04-27T09:38:04.352Z,3.25
2023-04-27T09:40:34.653Z,3.47
2023-04-27T09:43:04.047Z,3.75
2023-04-27T09:45:40.006Z,3.65
2023-04-27T09:48:13.515Z,3.42
2023-04-27T09:50:51.981Z,3.30
2023-04-27T09:53:31.440Z,3.13
2023-04-27T09:56:23.618Z,5.03
2023-04-27T09:59:23.589Z,3.70
2023-04-27T10:01:57.640Z,4.25
2023-04-27T10:05:11.650Z,3.80
2023-04-27T10:07:41.765Z,4.88
2023-04-27T10:10:20.472Z,4.03
2023-04-27T10:13:04.629Z,5.85
2023-04-27T10:15:43.185Z,3.97
2023-04-27T10:18:15.677Z,4.13
2023-04-27T10:20:45.804Z,3.65
2023-04-27T10:23:28.185Z,4.03
2023-04-27T10:25:58.092Z,3.50
2023-04-27T10:28:25.241Z,4.30
2023-04-27T10:30:56.991Z,3.85
2023-04-27T10:33:26.619Z,4.20
2023-04-27T10:36:01.372Z,3.67
2023-04-27T10:38:32.200Z,4.80
2023-04-27T10:41:09.084Z,4.55
2023-04-27T10:43:37.790Z,4.40
2023-04-27T10:46:20.194Z,3.88
2023-04-27T10:48:59.125Z,3.40
2023-04-27T10:51:29.652Z,4.90
2023-04-27T10:53:58.514Z,4.63
2023-04-27T10:56:36.508Z,4.45
2023-04-27T10:59:07.254Z,4.40
2023-04-27T11:01:37.033Z,4.72
2023-04-27T11:04:04.732Z,4.07
2023-04-27T11:06:46.516Z,4.50
2023-04-27T11:09:16.806Z,4.30
2023-04-27T11:11:54.918Z,4.30
2023-04-27T11:14:26.105Z,4.28
2023-04-27T11:16:56.401Z,4.53
2023-04-27T11:19:24.658Z,4.38
2023-04-27T11:21:53.839Z,4.15
2023-04-27T11:24:21.965Z,4.13
2023-04-27T11:27:02.131Z,4.43
2023-04-27T11:29:44.935Z,4.40
2023-04-27T11:32:28.917Z,4.68
2023-04-27T11:35:05.900Z,4.47
2023-04-27T11:37:36.174Z,4.07
2023-04-27T11:40:12.893Z,4.03
2023-04-27T11:42:44.143Z,4.40
2023-04-27T11:45:13.990Z,3.90
2023-04-27T11:47:50.924Z,4.00
2023-04-27T11:50:20.262Z,4.65
2023-04-27T11:52:52.045Z,4.32
2023-04-27T11:55:27.141Z,3.90
2023-04-27T11:58:01.482Z,3.80
2023-04-27T12:00:33.847Z,3.85
2023-04-27T12:03:05.481Z,3.85
2023-04-27T12:05:40.128Z,4.00
2023-04-27T12:08:11.373Z,4.65
2023-04-27T12:10:40.969Z,3.72
2023-04-27T12:13:10.049Z,3.65
2023-04-27T12:15:40.479Z,3.55
2023-04-27T12:18:16.354Z,3.67
2023-04-27T12:20:46.097Z,5.03
2023-04-27T12:23:17.641Z,4.32
2023-04-27T12:25:47.641Z,3.83
2023-04-27T12:28:19.659Z,4.30
2023-04-27T12:30:53.220Z,4.35
2023-04-27T12:33:26.240Z,3.88
2023-04-27T12:36:02.239Z,4.60
2023-04-27T12:38:33.597Z,3.90
2023-04-27T12:41:02.954Z,4.30
2023-04-27T12:43:32.602Z,4.13
2023-04-27T12:46:00.399Z,3.70
2023-04-27T12:48:30.405Z,3.42
2023-04-27T12:51:02.606Z,3.65
2023-04-27T12:53:30.782Z,3.90
2023-04-27T12:56:03.653Z,4.15
2023-04-27T12:58:32.173Z,3.75
2023-04-27T13:01:00.355Z,3.75
2023-04-27T13:03:28.945Z,4.30
2023-04-27T13:05:58.377Z,3.33
2023-04-27T13:08:29.958Z,3.60
2023-04-27T13:10:58.655Z,3.78
2023-04-27T13:13:29.597Z,4.13
2023-04-27T13:15:59.708Z,3.67
2023-04-27T13:18:35.222Z,3.60
2023-04-27T13:21:12.522Z,3.80
2023-04-27T13:26:32.552Z,3.67
2023-04-27T13:29:04.483Z,4.35
2023-04-27T13:31:34.160Z,3.53
2023-04-27T13:34:07.808Z,3.83
2023-04-27T13:36:37.744Z,3.60
2023-04-27T13:39:06.948Z,3.40
2023-04-27T13:41:36.716Z,3.50
2023-04-27T13:44:08.244Z,3.60
2023-04-27T13:46:36.842Z,3.45
2023-04-27T13:49:08.158Z,3.65
2023-04-27T13:51:37.928Z,3.15
2023-04-27T13:54:08.380Z,3.40
2023-04-27T13:56:38.390Z,3.17
2023-04-27T13:59:06.779Z,3.78
2023-04-27T14:01:34.043Z,3.60
2023-04-27T14:04:02.853Z,3.35
2023-04-27T14:06:34.381Z,3.58
2023-04-27T14:09:02.874Z,3.40
2023-04-27T14:11:48.910Z,3.50
2023-04-27T14:14:27.388Z,3.35
2023-04-27T14:16:57.886Z,4.07
2023-04-27T14:19:28.893Z,3.90
2023-04-27T14:21:57.532Z,3.55
2023-04-27T14:24:33.995Z,3.53
2023-04-27T14:27:13.331Z,4.28
2023-04-27T14:29:41.816Z,3.80
2023-04-27T14:32:12.841Z,3.83
2023-04-27T14:34:40.859Z,4.05
2023-04-27T14:37:10.658Z,4.10
2023-04-27T14:39:47.158Z,3.83
2023-04-27T14:42:15.776Z,4.20
2023-04-27T14:44:44.207Z,3.65
2023-04-27T14:47:12.402Z,3.17
2023-04-27T14:49:41.836Z,3.50
2023-04-27T14:52:11.441Z,3.78
2023-04-27T14:54:38.856Z,3.88
2023-04-27T14:57:09.191Z,3.28
2023-04-27T14:59:38.955Z,3.20
2023-04-27T15:02:06.529Z,3.30
2023-04-27T15:04:40.180Z,3.50
2023-04-27T15:07:10.424Z,3.08
2023-04-27T15:09:51.110Z,3.65
2023-04-27T15:12:19.621Z,3.30
2023-04-27T15:14:51.313Z,3.10
2023-04-27T15:17:19.800Z,3.97
2023-04-27T15:19:48.230Z,3.30
2023-04-27T15:22:27.572Z,3.92
2023-04-27T15:24:58.114Z,3.75
2023-04-27T15:27:28.695Z,3.60
2023-04-27T15:29:58.162Z,3.85
2023-04-27T15:32:31.371Z,3.85
2023-04-27T15:34:59.125Z,3.78
2023-04-27T15:37:28.194Z,3.85
2023-04-27T15:39:57.456Z,3.78
2023-04-27T15:42:26.632Z,3.80
2023-04-27T15:44:57.734Z,3.80
2023-04-27T15:47:27.826Z,3.78
2023-04-27T15:49:59.375Z,3.70
2023-04-27T15:52:30.032Z,3.20
2023-04-27T15:55:02.639Z,3.80
2023-04-27T15:57:32.081Z,3.40
2023-04-27T16:00:02.410Z,4.38
2023-04-27T16:02:31.461Z,3.67
2023-04-27T16:07:46.772Z,3.58
2023-04-27T16:10:20.552Z,3.95
2023-04-27T16:12:49.040Z,3.40
2023-04-27T16:15:19.005Z,3.60
2023-04-27T16:17:56.765Z,3.42
2023-04-27T16:20:26.365Z,3.53
2023-04-27T16:22:58.737Z,4.28
2023-04-27T16:25:27.306Z,3.55
2023-04-27T16:28:10.691Z,3.85
2023-04-27T16:30:40.853Z,3.42
2023-04-27T16:33:11.253Z,3.85
2023-04-27T16:35:42.437Z,3.70
2023-04-27T16:38:11.558Z,3.72
2023-04-27T16:40:41.815Z,3.60
2023-04-27T16:43:11.741Z,3.97
2023-04-27T16:45:42.077Z,4.20
2023-04-27T16:48:17.665Z,3.97
2023-04-27T16:50:47.084Z,3.83
2023-04-27T16:53:24.191Z,4.00
2023-04-27T16:55:56.449Z,3.80
2023-04-27T16:58:27.396Z,4.30
2023-04-27T17:00:57.803Z,3.63
2023-04-27T17:03:30.120Z,3.50
2023-04-27T17:06:00.112Z,3.53
2023-04-27T17:08:31.314Z,4.03
2023-04-27T17:10:58.605Z,3.77
2023-04-27T17:13:27.107Z,3.20
2023-04-27T17:15:57.352Z,3.50
2023-04-27T17:18:30.401Z,3.90
2023-04-27T17:20:59.275Z,4.20
2023-04-27T17:23:29.288Z,3.80
2023-04-27T17:26:00.478Z,3.53
2023-04-27T17:28:38.197Z,4.57
2023-04-27T17:31:06.789Z,4.70
2023-04-27T17:33:43.020Z,4.60
2023-04-27T17:36:12.049Z,4.73
2023-04-27T17:38:41.217Z,4.47
2023-04-27T17:41:10.529Z,4.03
2023-04-27T17:43:41.606Z,5.00
2023-04-27T17:46:10.234Z,4.97
2023-04-27T17:48:39.516Z,4.70
2023-04-27T17:51:13.111Z,4.70
2023-04-27T17:53:42.487Z,4.33
2023-04-27T17:56:19.621Z,4.43
2023-04-27T17:58:53.199Z,4.77
2023-04-27T18:01:25.436Z,5.30
2023-04-27T18:03:57.519Z,4.70
2023-04-27T18:06:30.260Z,4.80
2023-04-27T18:09:07.590Z,5.13
2023-04-27T18:11:45.012Z,5.47
2023-04-27T18:14:15.578Z,5.40
2023-04-27T18:16:45.111Z,4.90
2023-04-27T18:19:13.757Z,8.10
2023-04-27T18:21:44.466Z,7.93
2023-04-27T18:24:22.110Z,5.47
2023-04-27T18:26:52.226Z,4.93
2023-04-27T18:29:21.754Z,5.17
2023-04-27T18:31:53.591Z,4.50
2023-04-27T18:34:22.187Z,4.50
2023-04-27T18:36:52.317Z,4.13
2023-04-27T18:39:23.537Z,4.10
2023-04-27T18:41:51.949Z,3.70
2023-04-27T18:44:20.193Z,4.27
2023-04-27T18:46:57.337Z,5.20
2023-04-27T18:49:28.417Z,4.10
2023-04-27T18:51:57.512Z,4.00
2023-04-27T18:54:25.743Z,4.30
2023-04-27T18:56:55.302Z,3.90
2023-04-27T18:59:22.405Z,3.67
2023-04-27T19:01:52.066Z,4.10
2023-04-27T19:04:22.119Z,3.80
2023-04-27T19:06:51.027Z,4.23
2023-04-27T19:09:19.620Z,3.90
2023-04-27T19:11:52.395Z,4.03
2023-04-27T19:14:30.870Z,3.83
2023-04-27T19:17:09.383Z,3.97
2023-04-27T19:19:37.908Z,4.20
2023-04-27T19:22:14.224Z,4.03
2023-04-27T19:24:44.894Z,4.17
2023-04-27T19:27:15.570Z,3.97
2023-04-27T19:30:00.286Z,4.17
2023-04-27T19:32:31.379Z,4.23
2023-04-27T19:35:01.669Z,3.97
2023-04-27T19:37:32.002Z,4.10
2023-04-27T19:40:10.845Z,4.47
2023-04-27T19:42:39.734Z,4.20
2023-04-27T19:45:10.728Z,3.83
2023-04-27T19:47:38.453Z,3.83
2023-04-27T19:50:09.051Z,4.30
2023-04-27T19:52:37.377Z,4.13
2023-04-27T19:55:05.697Z,4.80
2023-04-27T19:57:37.381Z,4.17
2023-04-27T20:00:10.928Z,4.27
2023-04-27T20:02:47.610Z,4.50
2023-04-27T20:05:17.189Z,4.30
2023-04-27T20:07:46.717Z,4.60
2023-04-27T20:10:17.745Z,4.33
2023-04-27T20:12:57.080Z,4.10
2023-04-27T20:15:25.947Z,4.13
2023-04-27T20:17:56.853Z,4.40
2023-04-27T20:20:29.473Z,4.53
2023-04-27T20:23:03.157Z,4.37
2023-04-27T20:25:31.710Z,4.80
2023-04-27T20:28:02.130Z,4.40
2023-04-27T20:30:30.648Z,4.53
2023-04-27T20:32:59.512Z,4.47
2023-04-27T20:35:33.364Z,4.73
2023-04-27T20:38:09.685Z,4.37
2023-04-27T20:40:38.658Z,4.57
2023-04-27T20:43:08.750Z,4.60
2023-04-27T20:45:36.652Z,4.60
2023-04-27T20:48:10.652Z,4.77
2023-04-27T20:50:42.524Z,5.27
2023-04-27T20:53:18.722Z,5.10
2023-04-27T20:55:47.123Z,5.20
2023-04-27T20:58:16.574Z,4.83
2023-04-27T21:00:48.513Z,5.27
2023-04-27T21:03:17.234Z,5.03
2023-04-27T21:05:46.578Z,4.77
2023-04-27T21:08:18.485Z,5.03
2023-04-27T21:10:49.519Z,5.17
2023-04-27T21:13:20.454Z,4.50
2023-04-27T21:15:58.778Z,4.37
2023-04-27T21:18:30.309Z,4.23
2023-04-27T21:21:00.881Z,4.83
2023-04-27T21:23:29.694Z,4.53
2023-04-27T21:25:58.689Z,4.27
2023-04-27T21:28:35.741Z,4.70
2023-04-27T21:31:11.187Z,4.40
2023-04-27T21:33:41.260Z,4.67
2023-04-27T21:36:18.814Z,5.47
2023-04-27T21:38:48.669Z,4.70
2023-04-27T21:41:17.763Z,5.20
2023-04-27T21:43:54.269Z,4.90
2023-04-27T21:46:28.231Z,4.70
2023-04-27T21:49:10.629Z,4.60
2023-04-27T21:51:40.618Z,4.53
2023-04-27T21:54:09.008Z,4.80
2023-04-27T21:56:37.998Z,5.07
2023-04-27T21:59:08.316Z,5.10
2023-04-27T22:01:40.548Z,5.00
2023-04-27T22:04:18.098Z,4.77
2023-04-27T22:06:48.343Z,5.03
2023-04-27T22:09:17.321Z,4.77
2023-04-27T22:11:46.795Z,4.60
2023-04-27T22:14:22.474Z,5.17
2023-04-27T22:16:51.176Z,4.80
2023-04-27T22:19:29.800Z,4.37
2023-04-27T22:21:58.343Z,4.53
2023-04-27T22:24:34.448Z,5.20
2023-04-27T22:27:14.502Z,4.70
2023-04-27T22:29:53.088Z,4.73
2023-04-27T22:32:24.695Z,4.60
2023-04-27T22:34:56.353Z,4.63
2023-04-27T22:37:27.182Z,5.23
2023-04-27T22:40:07.704Z,4.77
2023-04-27T22:42:37.249Z,5.03
2023-04-27T22:45:05.139Z,5.20
2023-04-27T22:47:36.055Z,4.67
2023-04-27T22:50:09.905Z,4.93
2023-04-27T22:52:47.549Z,4.60
2023-04-27T22:55:24.678Z,4.90
2023-04-27T22:58:03.967Z,5.07
2023-04-27T23:00:34.190Z,4.63
2023-04-27T23:03:03.472Z,4.93
2023-04-27T23:05:33.336Z,5.20
2023-04-27T23:08:00.612Z,4.67
2023-04-27T23:10:31.963Z,5.07
2023-04-27T23:13:03.275Z,5.30
2023-04-27T23:15:34.351Z,4.53
2023-04-27T23:18:05.397Z,4.60
2023-04-27T23:20:32.472Z,4.17
2023-04-27T23:23:09.566Z,4.70
2023-04-27T23:25:37.128Z,5.10
2023-04-27T23:28:06.223Z,5.07
2023-04-27T23:30:35.046Z,4.57
2023-04-27T23:33:05.357Z,5.10
2023-04-27T23:35:34.930Z,4.63
2023-04-27T23:38:03.421Z,4.73
2023-04-27T23:40:34.320Z,5.07
2023-04-27T23:43:04.893Z,4.53
2023-04-27T23:45:35.821Z,5.20
2023-04-27T23:48:05.618Z,4.63
2023-04-27T23:50:41.211Z,4.70
2023-04-27T23:53:11.937Z,4.63
2023-04-27T23:55:48.142Z,4.77
2023-04-27T23:58:20.993Z,5.00
